createdAt,value
2023-05-21T00:02:23.400Z,14.07
2023-05-21T00:05:06.511Z,12.27
2023-05-21T00:07:48.661Z,13.60
2023-05-21T00:10:32.456Z,14.20
2023-05-21T00:13:15.075Z,12.43
2023-05-21T00:15:57.618Z,11.50
2023-05-21T00:18:39.943Z,13.57
2023-05-21T00:21:22.831Z,12.88
2023-05-21T00:24:05.773Z,11.57
2023-05-21T00:26:48.261Z,10.73
2023-05-21T00:29:30.550Z,18.25
2023-05-21T00:32:13.244Z,13.23
2023-05-21T00:34:58.343Z,13.30
2023-05-21T00:37:41.189Z,12.70
2023-05-21T00:40:23.742Z,11.65
2023-05-21T00:43:06.250Z,10.98
2023-05-21T00:45:48.659Z,11.90
2023-05-21T00:48:32.304Z,11.43
2023-05-21T00:51:15.833Z,13.63
2023-05-21T00:53:59.073Z,12.90
2023-05-21T00:56:42.215Z,11.63
2023-05-21T00:59:25.095Z,10.25
2023-05-21T01:02:09.588Z,9.95
2023-05-21T01:04:55.283Z,10.35
2023-05-21T01:07:41.574Z,11.65
2023-05-21T01:10:26.059Z,10.73
2023-05-21T01:13:08.611Z,9.32
2023-05-21T01:15:52.188Z,10.45
2023-05-21T01:18:35.471Z,12.07
2023-05-21T01:21:19.862Z,9.43
2023-05-21T01:24:05.570Z,8.80
2023-05-21T01:26:48.349Z,9.35
2023-05-21T01:29:30.821Z,8.50
2023-05-21T01:32:28.223Z,11.05
2023-05-21T01:35:25.609Z,9.18
2023-05-21T01:38:22.957Z,12.57
2023-05-21T01:41:12.473Z,9.85
2023-05-21T01:43:57.797Z,8.15
2023-05-21T01:46:41.459Z,10.40
2023-05-21T01:49:24.710Z,12.27
2023-05-21T01:52:07.096Z,9.73
2023-05-21T01:54:51.202Z,16.05
2023-05-21T01:57:33.422Z,10.90
2023-05-21T02:00:16.503Z,9.05
2023-05-21T02:02:58.883Z,11.13
2023-05-21T02:05:41.555Z,11.30
2023-05-21T02:08:23.899Z,11.52
2023-05-21T02:11:06.522Z,11.13
2023-05-21T02:13:48.821Z,9.40
2023-05-21T02:16:31.782Z,8.02
2023-05-21T02:19:14.116Z,9.45
2023-05-21T02:21:57.074Z,11.93
2023-05-21T02:24:39.285Z,8.40
2023-05-21T02:27:21.784Z,10.73
2023-05-21T02:30:09.043Z,8.27
2023-05-21T02:32:51.552Z,8.27
2023-05-21T02:35:34.155Z,11.77
2023-05-21T02:38:19.542Z,8.38
2023-05-21T02:41:01.954Z,9.65
2023-05-21T02:43:44.650Z,10.85
2023-05-21T02:46:26.889Z,8.55
2023-05-21T02:49:09.644Z,9.02
2023-05-21T02:51:51.920Z,9.68
2023-05-21T02:54:34.670Z,8.43
2023-05-21T02:57:18.405Z,9.70
2023-05-21T03:00:01.260Z,10.13
2023-05-21T03:02:44.606Z,8.77
2023-05-21T03:05:27.343Z,10.32
2023-05-21T03:08:09.552Z,6.30
2023-05-21T03:10:52.071Z,6.90
2023-05-21T03:13:34.382Z,7.50
2023-05-21T03:16:17.715Z,8.48
2023-05-21T03:19:00.299Z,10.15
2023-05-21T03:21:43.203Z,7.00
2023-05-21T03:24:25.412Z,9.30
2023-05-21T03:27:08.512Z,7.13
2023-05-21T03:29:51.950Z,8.68
2023-05-21T03:32:37.785Z,7.13
2023-05-21T03:35:21.090Z,7.40
2023-05-21T03:38:03.832Z,6.40
2023-05-21T03:40:46.081Z,8.63
2023-05-21T03:43:28.798Z,6.40
2023-05-21T03:46:11.331Z,7.13
2023-05-21T03:49:26.900Z,7.47
2023-05-21T03:52:11.792Z,10.75
2023-05-21T03:54:54.568Z,6.18
2023-05-21T03:57:37.627Z,9.82
2023-05-21T04:00:21.781Z,7.22
2023-05-21T04:03:09.652Z,7.30
2023-05-21T04:05:52.684Z,7.53
2023-05-21T04:08:34.896Z,6.63
2023-05-21T04:11:17.460Z,8.10
2023-05-21T04:13:59.798Z,8.30
2023-05-21T04:16:44.239Z,9.05
2023-05-21T04:19:27.168Z,13.82
2023-05-21T04:22:12.168Z,7.55
2023-05-21T04:24:54.761Z,5.25
2023-05-21T04:27:43.657Z,7.15
2023-05-21T04:30:25.955Z,8.25
2023-05-21T04:33:10.047Z,8.25
2023-05-21T04:35:52.249Z,7.10
2023-05-21T04:38:34.787Z,5.40
2023-05-21T04:41:19.056Z,5.25
2023-05-21T04:44:01.711Z,9.35
2023-05-21T04:46:46.920Z,6.38
2023-05-21T04:49:30.151Z,5.43
2023-05-21T04:52:12.650Z,5.90
2023-05-21T04:54:55.172Z,7.70
2023-05-21T04:57:38.549Z,4.43
2023-05-21T05:00:22.616Z,7.40
2023-05-21T05:03:05.516Z,5.78
2023-05-21T05:05:48.143Z,7.95
2023-05-21T05:08:32.584Z,5.25
2023-05-21T05:11:15.077Z,6.60
2023-05-21T05:13:57.570Z,5.18
2023-05-21T05:16:40.751Z,5.45
2023-05-21T05:19:23.084Z,7.15
2023-05-21T05:22:05.831Z,5.88
2023-05-21T05:24:48.708Z,5.18
2023-05-21T05:27:31.189Z,6.00
2023-05-21T05:30:13.845Z,5.15
2023-05-21T05:32:56.976Z,8.45
2023-05-21T05:35:39.524Z,5.07
2023-05-21T05:38:22.670Z,3.72
2023-05-21T05:41:06.110Z,9.77
2023-05-21T05:43:49.607Z,4.85
2023-05-21T05:46:36.789Z,5.38
2023-05-21T05:49:19.798Z,4.30
2023-05-21T05:52:02.803Z,3.83
2023-05-21T05:54:45.985Z,4.00
2023-05-21T05:57:28.511Z,10.95
2023-05-21T06:00:20.353Z,4.47
2023-05-21T06:03:05.857Z,5.47
2023-05-21T06:05:48.929Z,6.07
2023-05-21T06:08:31.479Z,6.40
2023-05-21T06:11:17.300Z,4.95
2023-05-21T06:16:45.000Z,5.10
2023-05-21T06:19:27.824Z,5.47
2023-05-21T06:22:11.020Z,4.38
2023-05-21T06:24:54.401Z,5.03
2023-05-21T06:27:39.042Z,4.75
2023-05-21T06:30:28.280Z,8.90
2023-05-21T06:33:11.653Z,6.60
2023-05-21T06:35:54.611Z,3.38
2023-05-21T06:38:37.584Z,3.97
2023-05-21T06:41:19.938Z,3.97
2023-05-21T06:44:10.328Z,4.22
2023-05-21T06:46:58.514Z,6.07
2023-05-21T06:49:41.145Z,5.68
2023-05-21T06:52:23.653Z,3.45
2023-05-21T06:55:07.168Z,5.97
2023-05-21T06:58:09.326Z,7.05
2023-05-21T07:00:52.217Z,5.32
2023-05-21T07:03:36.031Z,6.97
2023-05-21T07:06:19.104Z,9.02
2023-05-21T07:09:02.393Z,8.60
2023-05-21T07:11:47.133Z,8.40
2023-05-21T07:14:31.838Z,7.03
2023-05-21T07:17:14.836Z,3.92
2023-05-21T07:19:57.400Z,3.75
2023-05-21T07:22:41.649Z,3.95
2023-05-21T07:25:24.631Z,3.55
2023-05-21T07:28:07.395Z,7.60
2023-05-21T07:30:50.994Z,4.50
2023-05-21T07:33:38.210Z,3.85
2023-05-21T07:36:20.472Z,2.70
2023-05-21T07:39:03.660Z,10.13
2023-05-21T07:41:46.255Z,4.85
2023-05-21T07:44:29.088Z,7.60
2023-05-21T07:47:11.934Z,6.30
2023-05-21T07:49:54.724Z,9.07
2023-05-21T07:52:37.377Z,3.17
2023-05-21T07:55:22.256Z,4.47
2023-05-21T07:58:05.827Z,6.05
2023-05-21T08:00:49.443Z,3.15
2023-05-21T08:03:33.013Z,9.85
2023-05-21T08:06:15.700Z,2.75
2023-05-21T08:08:58.863Z,4.65
2023-05-21T08:11:41.817Z,9.15
2023-05-21T08:14:24.456Z,3.50
2023-05-21T08:17:07.025Z,3.88
2023-05-21T08:19:49.581Z,5.25
2023-05-21T08:22:32.570Z,4.85
2023-05-21T08:25:15.622Z,3.38
2023-05-21T08:27:58.279Z,4.85
2023-05-21T08:30:41.302Z,4.88
2023-05-21T08:33:24.550Z,7.25
2023-05-21T08:36:07.701Z,4.43
2023-05-21T08:38:55.288Z,4.15
2023-05-21T08:42:12.114Z,6.63
2023-05-21T08:45:00.944Z,6.90
2023-05-21T08:47:44.380Z,3.10
2023-05-21T08:50:31.878Z,6.63
2023-05-21T08:53:27.267Z,4.38
2023-05-21T08:56:13.314Z,2.42
2023-05-21T08:59:03.372Z,2.60
2023-05-21T09:01:52.660Z,3.85
2023-05-21T09:04:49.321Z,2.67
2023-05-21T09:07:36.549Z,3.92
2023-05-21T09:10:50.655Z,5.72
2023-05-21T09:13:36.863Z,3.38
2023-05-21T09:16:24.472Z,9.00
2023-05-21T09:19:08.593Z,4.70
2023-05-21T09:21:53.818Z,3.85
2023-05-21T09:24:40.564Z,4.32
2023-05-21T09:27:22.875Z,4.50
2023-05-21T09:30:11.053Z,4.25
2023-05-21T09:32:56.565Z,2.90
2023-05-21T09:38:34.134Z,3.85
2023-05-21T09:41:20.550Z,1.77
2023-05-21T09:44:04.373Z,10.07
2023-05-21T09:46:47.662Z,5.22
2023-05-21T09:49:31.279Z,7.78
2023-05-21T09:52:24.278Z,1.70
2023-05-21T09:55:10.589Z,3.55
2023-05-21T09:57:53.535Z,3.92
2023-05-21T10:00:36.115Z,5.30
2023-05-21T10:03:23.481Z,2.40
2023-05-21T10:06:09.245Z,2.58
2023-05-21T10:08:57.647Z,8.77
2023-05-21T10:11:41.937Z,7.18
2023-05-21T10:14:29.778Z,3.17
2023-05-21T10:17:12.764Z,5.20
2023-05-21T10:19:56.987Z,3.35
2023-05-21T10:22:40.982Z,3.03
2023-05-21T10:25:25.132Z,4.38
2023-05-21T10:28:07.385Z,4.53
2023-05-21T10:30:49.922Z,3.35
2023-05-21T10:33:33.655Z,5.32
2023-05-21T10:36:20.781Z,3.38
2023-05-21T10:39:03.370Z,3.42
2023-05-21T10:42:04.793Z,3.55
2023-05-21T10:45:13.859Z,2.40
2023-05-21T10:48:17.584Z,1.90
2023-05-21T10:51:08.207Z,3.88
2023-05-21T10:53:56.471Z,4.38
2023-05-21T10:56:43.643Z,1.95
2023-05-21T10:59:44.223Z,4.15
2023-05-21T11:02:27.456Z,3.72
2023-05-21T11:05:10.310Z,1.98
2023-05-21T11:08:01.664Z,4.55
2023-05-21T11:10:46.135Z,7.13
2023-05-21T11:13:31.513Z,6.50
2023-05-21T11:16:15.746Z,1.90
2023-05-21T11:18:58.089Z,2.22
2023-05-21T11:21:40.865Z,3.40
2023-05-21T11:24:25.657Z,4.68
2023-05-21T11:27:08.835Z,6.28
2023-05-21T11:29:56.410Z,3.38
2023-05-21T11:32:40.561Z,2.47
2023-05-21T11:35:23.092Z,6.22
2023-05-21T11:38:09.505Z,5.55
2023-05-21T11:40:56.604Z,4.90
2023-05-21T11:43:41.489Z,2.05
2023-05-21T11:46:25.231Z,3.60
2023-05-21T11:49:08.076Z,6.53
2023-05-21T11:51:50.442Z,3.80
2023-05-21T11:54:37.671Z,3.55
2023-05-21T11:57:20.073Z,5.47
2023-05-21T12:00:11.085Z,2.47
2023-05-21T12:02:57.387Z,3.17
2023-05-21T12:05:50.167Z,4.13
2023-05-21T12:08:32.470Z,2.83
2023-05-21T12:11:15.094Z,2.97
2023-05-21T12:13:57.712Z,5.43
2023-05-21T12:16:41.209Z,5.55
2023-05-21T12:19:23.805Z,2.97
2023-05-21T12:22:07.903Z,6.88
2023-05-21T12:24:50.688Z,4.15
2023-05-21T12:27:34.730Z,5.55
2023-05-21T12:30:17.664Z,2.75
2023-05-21T12:33:00.475Z,5.57
2023-05-21T12:35:46.953Z,2.10
2023-05-21T12:38:32.773Z,4.43
2023-05-21T12:41:16.166Z,1.90
2023-05-21T12:43:58.708Z,1.98
2023-05-21T12:46:42.807Z,2.13
2023-05-21T12:49:36.831Z,5.30
2023-05-21T12:52:22.627Z,10.20
2023-05-21T12:55:07.132Z,3.10
2023-05-21T12:58:00.040Z,2.22
2023-05-21T13:00:43.808Z,3.53
2023-05-21T13:03:27.168Z,7.07
2023-05-21T13:06:10.148Z,5.18
2023-05-21T13:08:52.617Z,5.70
2023-05-21T13:11:35.379Z,3.90
2023-05-21T13:14:18.101Z,2.05
2023-05-21T13:17:01.131Z,2.53
2023-05-21T13:19:44.653Z,4.90
2023-05-21T13:22:28.022Z,4.65
2023-05-21T13:25:11.810Z,2.33
2023-05-21T13:27:54.958Z,2.85
2023-05-21T13:30:37.620Z,4.05
2023-05-21T13:33:20.811Z,2.20
2023-05-21T13:36:03.242Z,6.10
2023-05-21T13:38:45.998Z,5.93
2023-05-21T13:41:28.212Z,2.58
2023-05-21T13:44:10.783Z,3.63
2023-05-21T13:46:53.080Z,4.88
2023-05-21T13:49:36.104Z,3.35
2023-05-21T13:52:18.434Z,3.65
2023-05-21T13:55:01.591Z,5.32
2023-05-21T13:57:44.189Z,3.50
2023-05-21T14:00:26.748Z,4.25
2023-05-21T14:03:10.741Z,4.90
2023-05-21T14:05:54.054Z,2.95
2023-05-21T14:08:36.423Z,5.50
2023-05-21T14:11:19.007Z,3.97
2023-05-21T14:14:02.939Z,3.53
2023-05-21T14:16:49.358Z,4.22
2023-05-21T14:19:31.779Z,2.22
2023-05-21T14:22:14.408Z,4.50
2023-05-21T14:24:56.981Z,3.17
2023-05-21T14:27:39.573Z,7.72
2023-05-21T14:30:21.958Z,4.22
2023-05-21T14:33:04.900Z,4.32
2023-05-21T14:35:48.011Z,4.47
2023-05-21T14:38:30.731Z,5.68
2023-05-21T14:41:12.922Z,3.65
2023-05-21T14:43:55.636Z,2.47
2023-05-21T14:46:39.600Z,2.20
2023-05-21T14:49:22.354Z,3.95
2023-05-21T14:52:04.943Z,6.10
2023-05-21T14:54:47.590Z,6.10
2023-05-21T14:57:29.802Z,6.43
2023-05-21T15:00:12.904Z,1.95
2023-05-21T15:02:57.118Z,4.53
2023-05-21T15:05:39.957Z,7.20
2023-05-21T15:08:22.760Z,5.60
2023-05-21T15:11:07.680Z,6.03
2023-05-21T15:13:50.034Z,3.55
2023-05-21T15:16:33.353Z,3.05
2023-05-21T15:19:15.831Z,2.00
2023-05-21T15:21:59.211Z,2.75
2023-05-21T15:24:41.559Z,2.22
2023-05-21T15:27:24.875Z,3.58
2023-05-21T15:30:09.982Z,3.58
2023-05-21T15:32:52.793Z,5.68
2023-05-21T15:35:36.383Z,6.22
2023-05-21T15:38:19.466Z,8.25
2023-05-21T15:41:01.731Z,2.83
2023-05-21T15:43:46.191Z,9.75
2023-05-21T15:46:28.481Z,5.43
2023-05-21T15:49:11.224Z,6.78
2023-05-21T15:51:53.580Z,5.65
2023-05-21T15:54:36.111Z,4.07
2023-05-21T15:57:18.392Z,3.17
2023-05-21T16:00:00.950Z,2.30
2023-05-21T16:02:43.318Z,5.13
2023-05-21T16:05:26.649Z,4.55
2023-05-21T16:08:11.466Z,8.85
2023-05-21T16:10:54.254Z,3.65
2023-05-21T16:13:36.626Z,7.32
2023-05-21T16:16:20.798Z,2.95
2023-05-21T16:19:04.963Z,4.15
2023-05-21T16:21:50.874Z,7.72
2023-05-21T16:24:33.587Z,2.85
2023-05-21T16:27:16.904Z,5.13
2023-05-21T16:29:59.275Z,5.10
2023-05-21T16:32:42.265Z,4.10
2023-05-21T16:35:25.040Z,5.35
2023-05-21T16:38:08.750Z,7.10
2023-05-21T16:40:54.977Z,3.33
2023-05-21T16:43:37.793Z,4.80
2023-05-21T16:46:20.784Z,4.78
2023-05-21T16:49:03.472Z,7.00
2023-05-21T16:51:45.828Z,4.80
2023-05-21T16:54:28.413Z,4.47
2023-05-21T16:57:11.355Z,3.08
2023-05-21T16:59:54.101Z,5.35
2023-05-21T17:02:36.393Z,2.47
2023-05-21T17:05:19.434Z,5.25
2023-05-21T17:08:01.713Z,7.82
2023-05-21T17:10:45.226Z,5.88
2023-05-21T17:13:27.680Z,3.38
2023-05-21T17:16:10.462Z,7.20
2023-05-21T17:18:53.170Z,7.25
2023-05-21T17:21:35.924Z,4.90
2023-05-21T17:24:18.222Z,6.68
2023-05-21T17:27:00.739Z,5.30
2023-05-21T17:29:43.081Z,3.40
2023-05-21T17:32:25.958Z,5.88
2023-05-21T17:35:09.514Z,7.13
2023-05-21T17:37:53.547Z,6.45
2023-05-21T17:40:36.273Z,3.80
2023-05-21T17:43:19.129Z,2.15
2023-05-21T17:46:01.498Z,3.10
2023-05-21T17:48:45.522Z,4.78
2023-05-21T17:51:28.152Z,4.25
2023-05-21T17:54:11.371Z,4.63
2023-05-21T17:56:53.756Z,9.88
2023-05-21T17:59:40.918Z,2.80
2023-05-21T18:02:24.384Z,4.68
2023-05-21T18:05:07.301Z,2.92
2023-05-21T18:07:49.848Z,10.80
2023-05-21T18:10:32.473Z,4.78
2023-05-21T18:13:14.767Z,6.55
2023-05-21T18:15:59.152Z,6.70
2023-05-21T18:18:42.378Z,7.40
2023-05-21T18:21:26.956Z,6.22
2023-05-21T18:24:09.386Z,6.88
2023-05-21T18:26:52.418Z,5.55
2023-05-21T18:29:36.909Z,7.78
2023-05-21T18:32:19.934Z,7.83
2023-05-21T18:35:02.356Z,6.80
2023-05-21T18:37:46.776Z,5.95
2023-05-21T18:40:30.707Z,8.70
2023-05-21T18:43:14.334Z,7.38
2023-05-21T18:45:57.089Z,8.10
2023-05-21T18:48:41.543Z,9.02
2023-05-21T18:51:24.209Z,6.93
2023-05-21T18:54:08.544Z,5.53
2023-05-21T18:56:50.808Z,6.82
2023-05-21T18:59:33.514Z,10.77
2023-05-21T19:02:16.063Z,10.80
2023-05-21T19:05:01.690Z,5.88
2023-05-21T19:07:44.435Z,4.82
2023-05-21T19:10:27.259Z,5.93
2023-05-21T19:13:10.268Z,7.45
2023-05-21T19:15:53.763Z,5.82
2023-05-21T19:18:36.413Z,6.30
2023-05-21T19:21:19.242Z,6.97
2023-05-21T19:24:05.433Z,7.97
2023-05-21T19:26:49.015Z,6.03
2023-05-21T19:29:31.388Z,7.53
2023-05-21T19:32:16.595Z,8.85
2023-05-21T19:34:58.884Z,8.45
2023-05-21T19:37:41.813Z,14.52
2023-05-21T19:40:24.809Z,7.35
2023-05-21T19:43:07.478Z,5.70
2023-05-21T19:45:49.972Z,7.38
2023-05-21T19:48:33.165Z,9.27
2023-05-21T19:51:15.971Z,8.07
2023-05-21T19:53:58.638Z,6.32
2023-05-21T19:56:41.593Z,6.78
2023-05-21T19:59:24.498Z,4.97
2023-05-21T20:02:07.353Z,9.23
2023-05-21T20:04:50.890Z,7.22
2023-05-21T20:07:33.362Z,5.40
2023-05-21T20:10:16.118Z,6.00
2023-05-21T20:12:58.469Z,6.47
2023-05-21T20:15:41.571Z,6.70
2023-05-21T20:18:25.114Z,6.75
2023-05-21T20:21:07.889Z,9.38
2023-05-21T20:23:50.687Z,8.00
2023-05-21T20:26:35.082Z,6.25
2023-05-21T20:29:17.498Z,6.68
2023-05-21T20:32:00.220Z,4.85
2023-05-21T20:34:54.331Z,5.47
2023-05-21T20:37:47.091Z,5.22
2023-05-21T20:40:29.461Z,10.52
2023-05-21T20:43:12.184Z,6.43
2023-05-21T20:45:59.885Z,7.00
2023-05-21T20:48:43.669Z,6.97
2023-05-21T20:51:27.326Z,7.32
2023-05-21T20:54:11.348Z,10.70
2023-05-21T20:56:54.968Z,12.60
2023-05-21T20:59:38.508Z,12.00
2023-05-21T21:02:21.732Z,12.63
2023-05-21T21:05:05.730Z,15.98
2023-05-21T21:07:48.151Z,11.68
2023-05-21T21:10:31.072Z,17.67
2023-05-21T21:13:13.941Z,14.55
2023-05-21T21:15:56.497Z,10.40
2023-05-21T21:18:38.711Z,10.35
2023-05-21T21:21:22.030Z,7.30
2023-05-21T21:24:04.668Z,7.47
2023-05-21T21:26:47.204Z,8.90
2023-05-21T21:29:29.425Z,8.80
2023-05-21T21:32:12.356Z,14.15
2023-05-21T21:34:54.538Z,12.60
2023-05-21T21:37:37.159Z,10.73
2023-05-21T21:40:19.364Z,15.75
2023-05-21T21:43:01.819Z,13.48
2023-05-21T21:45:44.125Z,15.93
2023-05-21T21:48:26.704Z,10.93
2023-05-21T21:51:08.989Z,10.73
2023-05-21T21:53:52.383Z,15.95
2023-05-21T21:56:34.686Z,14.88
2023-05-21T21:59:17.436Z,10.15
2023-05-21T22:01:59.812Z,8.45
2023-05-21T22:04:42.503Z,8.45
2023-05-21T22:07:24.858Z,9.30
2023-05-21T22:10:07.811Z,7.30
2023-05-21T22:12:50.102Z,7.03
2023-05-21T22:15:33.252Z,7.55
2023-05-21T22:18:28.263Z,8.10
2023-05-21T22:21:18.851Z,5.45
2023-05-21T22:24:01.218Z,7.00
2023-05-21T22:26:44.313Z,4.93
2023-05-21T22:29:26.616Z,9.30
2023-05-21T22:32:09.239Z,14.95
2023-05-21T22:34:51.483Z,7.72
2023-05-21T22:37:34.227Z,7.57
2023-05-21T22:40:16.689Z,6.57
2023-05-21T22:43:00.242Z,4.93
2023-05-21T22:45:42.577Z,6.38
2023-05-21T22:48:25.183Z,7.93
2023-05-21T22:51:08.584Z,7.43
2023-05-21T22:53:51.189Z,5.38
2023-05-21T22:56:33.838Z,5.57
2023-05-21T22:59:16.387Z,5.65
2023-05-21T23:01:59.272Z,5.68
2023-05-21T23:04:44.256Z,6.82
2023-05-21T23:07:26.889Z,5.55
2023-05-21T23:10:10.069Z,7.57
2023-05-21T23:12:52.476Z,7.53
2023-05-21T23:15:38.820Z,8.70
2023-05-21T23:18:21.223Z,6.28
2023-05-21T23:21:03.764Z,5.32
2023-05-21T23:23:46.182Z,7.13
2023-05-21T23:26:29.050Z,8.63
2023-05-21T23:29:11.270Z,7.25
2023-05-21T23:31:54.562Z,7.07
2023-05-21T23:34:36.800Z,6.30
2023-05-21T23:37:19.466Z,6.47
2023-05-21T23:40:01.743Z,8.43
2023-05-21T23:42:44.338Z,4.63
2023-05-21T23:45:26.630Z,5.38
2023-05-21T23:48:09.195Z,6.25
2023-05-21T23:50:51.659Z,5.38
2023-05-21T23:53:34.158Z,5.80
2023-05-21T23:56:16.518Z,8.30
2023-05-21T23:58:59.032Z,5.22
